This is the latest recevied weather packets stored in our database for station/object N0TKN. If no packets are shown the sender has not sent any weather packets the latest 10 day(s).
| Time | Temp. | Humidity | Pressure | Rain* | Wind** | Luminosity | Snow |
|---|---|---|---|---|---|---|---|
| 1778174716 | 18.33° C | 39% | 1014.3 hPa | 0 mm | - | 949 W/m² | - |
| 1778174116 | 17.78° C | 40% | 1014.6 hPa | 0 mm | - | 932 W/m² | - |
| 1778173516 | 17.78° C | 40% | 1014.7 hPa | 0 mm | - | 921 W/m² | - |
| 1778172916 | 17.78° C | 41% | 1014.8 hPa | 0 mm | - | 908 W/m² | - |
| 1778172317 | 18.33° C | 41% | 1014.7 hPa | 0 mm | - | 892 W/m² | - |
| 1778171717 | 17.78° C | 41% | 1014.8 hPa | 0 mm | - | 878 W/m² | - |
| 1778171117 | 17.22° C | 41% | 1014.9 hPa | 0 mm | - | 864 W/m² | - |
| 1778170517 | 17.22° C | 41% | 1014.8 hPa | 0 mm | - | 844 W/m² | - |
| 1778169917 | 16.67° C | 42% | 1015.1 hPa | 0 mm | - | 826 W/m² | - |
| 1778169317 | 16.67° C | 44% | 1014.9 hPa | 0 mm | - | 803 W/m² | - |
| 1778168718 | 16.11° C | 43% | 1015.3 hPa | 0 mm | - | 781 W/m² | - |
| 1778168117 | 16.11° C | 45% | 1015.1 hPa | 0 mm | - | 759 W/m² | - |
| 1778167518 | 16.11° C | 46% | 1015.1 hPa | 0 mm | - | 733 W/m² | - |
| 1778166918 | 15.56° C | 46% | 1015.1 hPa | 0 mm | - | 706 W/m² | - |
| 1778166318 | 15° C | 48% | 1015.1 hPa | 0 mm | - | 678 W/m² | - |
| 1778165715 | 14.44° C | 50% | 1015.4 hPa | 0 mm | - | 650 W/m² | - |
| 1778165116 | 14.44° C | 53% | 1015.2 hPa | 0 mm | - | 621 W/m² | - |
| 1778164516 | 13.89° C | 54% | 1015.1 hPa | 0 mm | - | 591 W/m² | - |
| 1778163916 | 13.89° C | 55% | 1015.8 hPa | 0 mm | - | 567 W/m² | - |
| 1778163316 | 13.89° C | 57% | 1016 hPa | 0 mm | - | 534 W/m² | - |
| 1778162716 | 13.89° C | 58% | 1016 hPa | 0 mm | - | 499 W/m² | - |
| 1778162116 | 13.89° C | 68% | 1015.8 hPa | 0 mm | - | 461 W/m² | - |
| 1778161517 | 12.22° C | 77% | 1015.9 hPa | 0 mm | - | 426 W/m² | - |
| 1778160916 | 11.11° C | 81% | 1016.2 hPa | 0 mm | - | 390 W/m² | - |
| 1778160317 | 10.56° C | 81% | 1016.3 hPa | 0 mm | - | 355 W/m² | - |
* Rain latest hour (hover to see other rain measurements)
** Current wind speed in m/s (hover to see current wind gust speed)